createdAt,value
2019-01-14T00:01:59.220Z,9.20
2019-01-14T00:04:25.872Z,9.00
2019-01-14T00:06:53.277Z,9.20
2019-01-14T00:09:23.323Z,6.85
2019-01-14T00:11:48.776Z,7.43
2019-01-14T00:14:17.127Z,7.47
2019-01-14T00:16:43.965Z,7.17
2019-01-14T00:19:13.416Z,7.30
2019-01-14T00:21:40.354Z,9.27
2019-01-14T00:24:07.983Z,8.90
2019-01-14T00:26:34.853Z,9.00
2019-01-14T00:29:01.473Z,8.57
2019-01-14T00:31:28.345Z,7.85
2019-01-14T00:33:58.423Z,7.23
2019-01-14T00:36:25.739Z,6.87
2019-01-14T00:38:53.731Z,7.27
2019-01-14T00:41:20.524Z,6.50
2019-01-14T00:46:37.201Z,7.00
2019-01-14T00:49:05.031Z,7.20
2019-01-14T00:51:31.631Z,7.20
2019-01-14T00:54:00.006Z,6.40
2019-01-14T00:56:27.682Z,7.90
2019-01-14T00:58:55.776Z,8.63
2019-01-14T01:01:25.194Z,7.87
2019-01-14T01:03:53.181Z,7.90
2019-01-14T01:06:24.576Z,6.67
2019-01-14T01:08:51.407Z,7.53
2019-01-14T01:11:19.314Z,7.10
2019-01-14T01:13:45.927Z,6.45
2019-01-14T01:16:15.261Z,8.83
2019-01-14T01:18:42.032Z,6.77
2019-01-14T01:21:19.920Z,7.57
2019-01-14T01:23:49.105Z,7.17
2019-01-14T01:26:18.306Z,6.83
2019-01-14T01:28:46.091Z,7.90
2019-01-14T01:34:08.825Z,6.08
2019-01-14T01:36:35.409Z,7.53
2019-01-14T01:39:01.992Z,5.80
2019-01-14T01:41:29.300Z,4.75
2019-01-14T01:43:55.905Z,6.43
2019-01-14T01:46:22.519Z,5.00
2019-01-14T01:48:49.142Z,4.47
2019-01-14T01:51:16.027Z,5.97
2019-01-14T01:53:42.685Z,5.90
2019-01-14T01:56:09.337Z,7.93
2019-01-14T01:58:36.185Z,7.60
2019-01-14T02:01:03.202Z,6.97
2019-01-14T02:03:30.084Z,7.03
2019-01-14T02:05:56.677Z,7.60
2019-01-14T02:08:23.311Z,5.70
2019-01-14T02:10:50.248Z,4.93
2019-01-14T02:13:17.170Z,7.40
2019-01-14T02:15:43.767Z,5.23
2019-01-14T02:18:11.636Z,6.03
2019-01-14T02:20:38.268Z,6.50
2019-01-14T02:23:04.867Z,6.63
2019-01-14T02:25:31.478Z,6.90
2019-01-14T02:27:58.375Z,7.90
2019-01-14T02:30:25.244Z,6.22
2019-01-14T02:32:51.893Z,6.57
2019-01-14T02:35:18.491Z,7.57
2019-01-14T02:37:45.386Z,5.97
2019-01-14T02:40:12.026Z,6.57
2019-01-14T02:42:38.622Z,5.90
2019-01-14T02:45:05.465Z,6.30
2019-01-14T02:47:32.109Z,6.73
2019-01-14T02:49:58.778Z,6.90
2019-01-14T02:52:25.557Z,8.03
2019-01-14T02:54:52.482Z,6.17
2019-01-14T02:57:19.088Z,5.97
2019-01-14T02:59:45.980Z,4.30
2019-01-14T03:02:12.824Z,5.80
2019-01-14T03:04:39.606Z,5.17
2019-01-14T03:07:06.189Z,5.30
2019-01-14T03:09:32.881Z,5.17
2019-01-14T03:11:59.632Z,5.30
2019-01-14T03:14:26.261Z,4.67
2019-01-14T03:16:52.964Z,4.77
2019-01-14T03:19:19.704Z,5.30
2019-01-14T03:21:46.427Z,4.65
2019-01-14T03:24:13.065Z,4.70
2019-01-14T03:26:39.794Z,4.07
2019-01-14T03:29:06.717Z,4.30
2019-01-14T03:31:33.330Z,4.10
2019-01-14T03:33:59.930Z,4.67
2019-01-14T03:36:26.797Z,5.33
2019-01-14T03:38:54.270Z,3.47
2019-01-14T03:41:20.954Z,4.63
2019-01-14T03:43:47.836Z,3.73
2019-01-14T03:46:14.438Z,3.57
2019-01-14T03:48:42.279Z,4.05
2019-01-14T03:51:08.920Z,3.77
2019-01-14T03:53:35.810Z,2.85
2019-01-14T03:56:02.438Z,3.37
2019-01-14T03:58:29.091Z,3.10
2019-01-14T04:00:56.047Z,3.73
2019-01-14T04:03:22.655Z,2.90
2019-01-14T04:05:49.272Z,2.70
2019-01-14T04:08:16.097Z,2.98
2019-01-14T04:10:43.041Z,2.93
2019-01-14T04:13:09.646Z,3.53
2019-01-14T04:15:36.287Z,3.00
2019-01-14T04:18:03.084Z,3.03
2019-01-14T04:20:29.749Z,3.10
2019-01-14T04:23:01.227Z,2.60
2019-01-14T04:25:28.178Z,4.10
2019-01-14T04:27:54.744Z,2.40
2019-01-14T04:30:21.395Z,2.90
2019-01-14T04:32:50.797Z,2.30
2019-01-14T04:35:17.394Z,2.50
2019-01-14T04:37:44.250Z,2.70
2019-01-14T04:40:12.621Z,3.14
2019-01-14T04:42:39.623Z,3.33
2019-01-14T04:45:06.322Z,2.77
2019-01-14T04:47:33.213Z,2.50
2019-01-14T04:49:59.834Z,3.20
2019-01-14T04:52:27.010Z,2.67
2019-01-14T04:54:53.618Z,3.50
2019-01-14T04:57:20.389Z,2.70
2019-01-14T04:59:47.039Z,2.98
2019-01-14T05:02:13.931Z,3.50
2019-01-14T05:04:40.594Z,3.00
2019-01-14T05:07:07.523Z,3.07
2019-01-14T05:09:34.576Z,3.22
2019-01-14T05:12:01.488Z,3.63
2019-01-14T05:14:28.123Z,3.50
2019-01-14T05:16:54.828Z,2.65
2019-01-14T05:19:21.623Z,3.03
2019-01-14T05:21:48.600Z,2.93
2019-01-14T05:24:15.206Z,2.60
2019-01-14T05:26:42.959Z,3.20
2019-01-14T05:29:09.695Z,2.57
2019-01-14T05:31:36.315Z,2.50
2019-01-14T05:34:02.924Z,2.10
2019-01-14T05:36:29.734Z,2.10
2019-01-14T05:38:56.355Z,2.20
2019-01-14T05:41:22.970Z,1.93
2019-01-14T05:43:49.839Z,2.27
2019-01-14T05:46:16.752Z,1.70
2019-01-14T05:48:43.428Z,1.70
2019-01-14T05:51:10.037Z,1.60
2019-01-14T05:53:38.428Z,1.43
2019-01-14T05:56:05.052Z,1.40
2019-01-14T06:01:04.606Z,1.23
2019-01-14T06:03:31.274Z,1.20
2019-01-14T06:05:57.948Z,1.30
2019-01-14T06:08:24.547Z,1.27
2019-01-14T06:10:51.156Z,1.10
2019-01-14T06:13:18.755Z,1.53
2019-01-14T06:15:45.412Z,1.20
2019-01-14T06:18:13.390Z,1.15
2019-01-14T06:20:40.073Z,2.00
2019-01-14T06:23:07.337Z,1.20
2019-01-14T06:25:34.328Z,1.00
2019-01-14T06:28:01.226Z,1.07
2019-01-14T06:30:28.234Z,0.80
2019-01-14T06:32:54.866Z,1.10
2019-01-14T06:35:21.507Z,0.97
2019-01-14T06:37:52.307Z,1.20
2019-01-14T06:40:16.613Z,1.10
2019-01-14T06:42:43.759Z,1.23
2019-01-14T06:45:10.431Z,1.17
2019-01-14T06:47:37.331Z,1.10
2019-01-14T06:50:03.982Z,1.10
2019-01-14T06:52:30.594Z,1.20
2019-01-14T06:54:57.714Z,1.30
2019-01-14T06:57:24.545Z,0.73
2019-01-14T06:59:51.510Z,0.90
2019-01-14T07:02:18.152Z,1.10
2019-01-14T07:04:44.823Z,1.23
2019-01-14T07:07:11.517Z,1.00
2019-01-14T07:09:38.304Z,1.20
2019-01-14T07:12:04.952Z,1.20
2019-01-14T07:14:31.687Z,1.90
2019-01-14T07:16:58.759Z,2.72
2019-01-14T07:19:25.627Z,2.30
2019-01-14T07:21:52.257Z,2.17
2019-01-14T07:24:21.451Z,2.03
2019-01-14T07:26:48.080Z,1.60
2019-01-14T07:29:14.707Z,2.13
2019-01-14T07:31:41.740Z,1.90
2019-01-14T07:34:09.465Z,1.57
2019-01-14T07:36:36.099Z,1.40
2019-01-14T07:39:02.838Z,1.60
2019-01-14T07:41:29.784Z,1.90
2019-01-14T07:43:56.858Z,2.03
2019-01-14T07:46:23.842Z,2.30
2019-01-14T07:48:50.779Z,2.10
2019-01-14T07:51:17.397Z,1.50
2019-01-14T07:53:44.339Z,2.33
2019-01-14T07:56:10.973Z,2.07
2019-01-14T07:58:37.941Z,1.80
2019-01-14T08:01:04.982Z,2.05
2019-01-14T08:03:32.013Z,1.97
2019-01-14T08:05:59.011Z,2.13
2019-01-14T08:08:25.973Z,2.47
2019-01-14T08:10:52.935Z,2.30
2019-01-14T08:13:19.879Z,2.40
2019-01-14T08:15:48.356Z,2.37
2019-01-14T08:18:15.248Z,2.80
2019-01-14T08:20:42.130Z,2.60
2019-01-14T08:23:09.065Z,2.67
2019-01-14T08:25:35.797Z,3.00
2019-01-14T08:28:02.440Z,3.07
2019-01-14T08:30:29.188Z,2.67
2019-01-14T08:32:56.133Z,3.50
2019-01-14T08:35:22.773Z,3.13
2019-01-14T08:37:49.449Z,3.10
2019-01-14T08:40:16.494Z,3.20
2019-01-14T08:42:44.555Z,2.92
2019-01-14T08:45:11.620Z,3.03
2019-01-14T08:47:38.313Z,3.10
2019-01-14T08:50:05.246Z,3.53
2019-01-14T08:52:31.873Z,3.03
2019-01-14T08:54:59.630Z,3.70
2019-01-14T08:57:26.296Z,3.17
2019-01-14T08:59:53.020Z,2.67
2019-01-14T09:02:19.667Z,2.80
2019-01-14T09:04:46.958Z,2.53
2019-01-14T09:07:14.724Z,2.58
2019-01-14T09:09:41.418Z,2.20
2019-01-14T09:12:08.336Z,2.42
2019-01-14T09:14:35.245Z,1.00
2019-01-14T09:17:02.029Z,1.10
2019-01-14T09:19:28.783Z,0.75
2019-01-14T09:21:56.448Z,0.43
2019-01-14T09:24:23.148Z,0.70
2019-01-14T09:26:49.819Z,0.60
2019-01-14T09:29:16.633Z,0.70
2019-01-14T09:31:44.993Z,0.56
2019-01-14T09:34:11.678Z,0.67
2019-01-14T09:36:38.650Z,0.53
2019-01-14T09:39:05.634Z,0.68
2019-01-14T09:41:32.625Z,0.70
2019-01-14T09:43:59.276Z,0.50
2019-01-14T09:46:26.153Z,0.70
2019-01-14T09:48:52.874Z,0.60
2019-01-14T09:51:19.792Z,0.70
2019-01-14T09:53:46.768Z,0.60
2019-01-14T09:56:15.105Z,0.70
2019-01-14T09:58:41.875Z,0.70
2019-01-14T10:01:08.794Z,0.72
2019-01-14T10:03:35.469Z,0.60
2019-01-14T10:06:02.284Z,0.80
2019-01-14T10:08:28.972Z,0.70
2019-01-14T10:10:55.969Z,0.70
2019-01-14T10:13:22.934Z,0.50
2019-01-14T10:15:50.353Z,0.60
2019-01-14T10:18:16.996Z,0.90
2019-01-14T10:20:45.393Z,0.70
2019-01-14T10:23:12.063Z,0.70
2019-01-14T10:25:40.218Z,0.67
2019-01-14T10:28:07.204Z,0.80
2019-01-14T10:30:34.261Z,0.70
2019-01-14T10:33:01.172Z,0.90
2019-01-14T10:35:30.359Z,0.70
2019-01-14T10:37:57.672Z,0.70
2019-01-14T10:40:24.344Z,0.63
2019-01-14T10:42:51.261Z,0.70
2019-01-14T10:45:18.001Z,0.70
2019-01-14T10:47:45.630Z,0.50
2019-01-14T10:50:12.311Z,0.60
2019-01-14T10:52:38.992Z,1.20
2019-01-14T10:55:12.103Z,0.70
2019-01-14T10:57:33.921Z,0.57
2019-01-14T11:00:00.556Z,0.60
2019-01-14T11:02:27.356Z,1.00
2019-01-14T11:04:54.014Z,1.00
2019-01-14T11:07:20.768Z,0.60
2019-01-14T11:09:47.453Z,1.03
2019-01-14T11:12:15.827Z,0.60
2019-01-14T11:14:42.710Z,0.60
2019-01-14T11:17:09.525Z,0.83
2019-01-14T11:19:36.622Z,0.50
2019-01-14T11:22:03.798Z,0.70
2019-01-14T11:24:30.592Z,0.73
2019-01-14T11:26:57.173Z,0.70
2019-01-14T11:29:23.832Z,0.50
2019-01-14T11:31:50.641Z,0.70
2019-01-14T11:34:17.566Z,0.50
2019-01-14T11:36:45.583Z,0.57
2019-01-14T11:39:12.213Z,0.60
2019-01-14T11:41:39.043Z,0.70
2019-01-14T11:44:05.796Z,0.70
2019-01-14T11:46:32.659Z,0.90
2019-01-14T11:48:59.401Z,1.30
2019-01-14T11:51:26.075Z,0.80
2019-01-14T11:53:52.821Z,0.70
2019-01-14T11:56:19.930Z,0.80
2019-01-14T11:58:46.844Z,0.57
2019-01-14T12:01:13.462Z,0.60
2019-01-14T12:03:40.076Z,0.60
2019-01-14T12:06:10.135Z,0.90
2019-01-14T12:08:36.932Z,0.60
2019-01-14T12:11:03.537Z,0.50
2019-01-14T12:13:30.183Z,0.90
2019-01-14T12:15:57.018Z,0.73
2019-01-14T12:18:23.644Z,0.80
2019-01-14T12:20:50.265Z,0.62
2019-01-14T12:23:17.061Z,0.67
2019-01-14T12:25:43.668Z,0.70
2019-01-14T12:28:10.286Z,0.60
2019-01-14T12:30:37.205Z,0.70
2019-01-14T12:33:03.810Z,0.60
2019-01-14T12:35:30.518Z,1.30
2019-01-14T12:37:57.405Z,0.80
2019-01-14T12:40:25.295Z,0.60
2019-01-14T12:42:52.245Z,0.60
2019-01-14T12:45:18.893Z,0.60
2019-01-14T12:47:46.719Z,0.70
2019-01-14T12:50:13.454Z,0.70
2019-01-14T12:52:40.061Z,0.50
2019-01-14T12:55:06.656Z,0.70
2019-01-14T12:57:33.868Z,0.60
2019-01-14T13:00:01.956Z,0.65
2019-01-14T13:02:28.623Z,0.67
2019-01-14T13:04:55.297Z,0.50
2019-01-14T13:07:22.280Z,0.80
2019-01-14T13:09:48.819Z,0.63
2019-01-14T13:12:17.054Z,0.70
2019-01-14T13:14:43.775Z,0.60
2019-01-14T13:17:11.192Z,0.70
2019-01-14T13:19:37.877Z,0.67
2019-01-14T13:22:05.088Z,0.80
2019-01-14T13:24:31.839Z,0.50
2019-01-14T13:26:58.991Z,0.70
2019-01-14T13:29:25.856Z,0.60
2019-01-14T13:31:52.791Z,0.70
2019-01-14T13:34:19.405Z,0.63
2019-01-14T13:36:47.172Z,0.60
2019-01-14T13:39:13.860Z,0.70
2019-01-14T13:41:40.457Z,0.60
2019-01-14T13:44:07.127Z,0.57
2019-01-14T13:46:33.961Z,0.77
2019-01-14T13:49:00.672Z,0.60
2019-01-14T13:51:27.289Z,0.90
2019-01-14T13:53:54.002Z,0.60
2019-01-14T13:56:21.231Z,0.68
2019-01-14T13:58:48.041Z,0.60
2019-01-14T14:01:14.813Z,0.60
2019-01-14T14:03:41.503Z,0.40
2019-01-14T14:06:08.272Z,0.60
2019-01-14T14:08:35.234Z,0.72
2019-01-14T14:11:01.844Z,0.93
2019-01-14T14:13:29.289Z,0.60
2019-01-14T14:15:55.926Z,0.80
2019-01-14T14:18:22.697Z,1.67
2019-01-14T14:20:49.349Z,0.87
2019-01-14T14:23:17.809Z,0.92
2019-01-14T14:25:44.465Z,0.57
2019-01-14T14:28:11.728Z,0.60
2019-01-14T14:30:39.462Z,0.87
2019-01-14T14:33:06.495Z,0.67
2019-01-14T14:35:33.124Z,0.60
2019-01-14T14:38:01.166Z,1.00
2019-01-14T14:40:28.180Z,2.87
2019-01-14T14:42:54.773Z,0.93
2019-01-14T14:45:21.883Z,0.95
2019-01-14T14:47:48.844Z,0.90
2019-01-14T14:50:15.644Z,0.60
2019-01-14T14:52:42.367Z,0.50
2019-01-14T14:55:09.084Z,0.93
2019-01-14T14:57:42.822Z,0.70
2019-01-14T15:00:09.679Z,0.80
2019-01-14T15:02:40.846Z,1.00
2019-01-14T15:05:09.118Z,0.90
2019-01-14T15:07:38.207Z,0.75
2019-01-14T15:10:08.651Z,0.70
2019-01-14T15:12:38.493Z,0.70
2019-01-14T15:15:05.199Z,0.70
2019-01-14T15:33:10.546Z,0.63
2019-01-14T15:35:37.176Z,0.70
2019-01-14T15:38:03.942Z,0.67
2019-01-14T15:40:30.633Z,0.87
2019-01-14T15:42:57.232Z,0.73
2019-01-14T15:45:24.066Z,0.67
2019-01-14T15:47:50.717Z,0.80
2019-01-14T15:50:18.534Z,0.70
2019-01-14T15:52:45.174Z,0.80
2019-01-14T15:55:11.829Z,1.00
2019-01-14T15:57:38.438Z,0.97
2019-01-14T16:00:05.449Z,0.70
2019-01-14T16:02:32.313Z,1.33
2019-01-14T16:04:59.204Z,1.20
2019-01-14T16:07:25.812Z,0.90
2019-01-14T16:09:52.544Z,1.00
2019-01-14T16:12:19.356Z,1.10
2019-01-14T16:14:45.954Z,0.87
2019-01-14T16:17:12.628Z,0.90
2019-01-14T16:19:55.049Z,1.17
2019-01-14T16:22:22.639Z,2.10
2019-01-14T16:24:49.479Z,2.17
2019-01-14T16:27:16.849Z,1.60
2019-01-14T16:29:44.908Z,0.50
2019-01-14T16:32:11.546Z,0.60
2019-01-14T16:34:38.408Z,0.60
2019-01-14T16:37:05.000Z,0.60
2019-01-14T16:39:31.908Z,0.60
2019-01-14T16:41:58.537Z,1.00
2019-01-14T16:44:25.156Z,0.80
2019-01-14T16:46:53.208Z,0.80
2019-01-14T16:49:21.354Z,0.70
2019-01-14T16:51:51.969Z,0.70
2019-01-14T16:54:29.437Z,0.65
2019-01-14T16:56:56.032Z,0.57
2019-01-14T16:59:30.065Z,0.80
2019-01-14T17:01:56.438Z,0.80
2019-01-14T17:04:23.056Z,0.57
2019-01-14T17:06:49.875Z,0.60
2019-01-14T17:09:16.711Z,0.90
2019-01-14T17:11:43.369Z,0.83
2019-01-14T17:14:09.997Z,0.77
2019-01-14T17:16:37.488Z,1.00
2019-01-14T17:19:05.371Z,0.90
2019-01-14T17:21:42.372Z,0.90
2019-01-14T17:24:09.462Z,0.87
2019-01-14T17:26:39.724Z,0.90
2019-01-14T17:29:17.177Z,1.30
2019-01-14T17:31:44.095Z,1.10
2019-01-14T17:34:12.887Z,1.20
2019-01-14T17:36:39.257Z,0.90
2019-01-14T17:39:08.181Z,1.00
2019-01-14T17:41:34.981Z,1.50
2019-01-14T17:44:01.572Z,1.10
2019-01-14T17:46:29.396Z,0.93
2019-01-14T17:48:57.010Z,0.93
2019-01-14T17:51:35.869Z,0.95
2019-01-14T17:54:03.141Z,1.00
2019-01-14T17:56:30.411Z,1.07
2019-01-14T17:58:57.271Z,0.90
2019-01-14T18:01:23.922Z,0.70
2019-01-14T18:03:51.723Z,0.70
2019-01-14T18:06:23.441Z,0.80
2019-01-14T18:08:51.232Z,0.80
2019-01-14T18:11:19.061Z,0.87
2019-01-14T18:13:45.667Z,0.87
2019-01-14T18:16:12.531Z,0.73
2019-01-14T18:18:39.125Z,0.90
2019-01-14T18:21:13.286Z,0.80
2019-01-14T18:23:34.057Z,1.60
2019-01-14T18:26:00.683Z,0.80
2019-01-14T18:28:27.852Z,0.63
2019-01-14T18:31:09.384Z,0.62
2019-01-14T18:33:40.330Z,0.73
2019-01-14T18:36:07.655Z,0.62
2019-01-14T18:38:34.267Z,0.60
2019-01-14T18:41:00.865Z,0.77
2019-01-14T18:43:27.699Z,0.70
2019-01-14T18:45:54.666Z,0.78
2019-01-14T18:48:21.290Z,0.80
2019-01-14T18:50:48.909Z,1.03
2019-01-14T18:53:15.849Z,1.10
2019-01-14T18:55:42.974Z,1.30
2019-01-14T18:58:13.169Z,0.97
2019-01-14T19:00:47.986Z,1.10
2019-01-14T19:03:14.857Z,0.90
2019-01-14T19:05:41.465Z,1.10
2019-01-14T19:08:08.131Z,1.05
2019-01-14T19:10:36.044Z,1.02
2019-01-14T19:13:04.142Z,1.20
2019-01-14T19:15:31.514Z,0.97
2019-01-14T19:17:58.116Z,0.90
2019-01-14T19:20:25.386Z,1.00
2019-01-14T19:22:52.064Z,1.20
2019-01-14T19:25:20.378Z,1.10
2019-01-14T19:27:47.044Z,1.10
2019-01-14T19:30:14.602Z,1.00
2019-01-14T19:32:44.219Z,1.20
2019-01-14T19:35:12.522Z,1.20
2019-01-14T19:37:39.737Z,1.53
2019-01-14T19:42:54.825Z,0.95
2019-01-14T19:45:21.398Z,0.70
2019-01-14T19:47:48.214Z,0.63
2019-01-14T19:50:18.593Z,0.70
2019-01-14T19:52:46.641Z,0.80
2019-01-14T19:55:13.258Z,0.97
2019-01-14T19:57:40.765Z,0.80
2019-01-14T20:00:09.469Z,0.83
2019-01-14T20:02:36.318Z,1.07
2019-01-14T20:05:03.222Z,0.73
2019-01-14T20:07:32.611Z,0.90
2019-01-14T20:10:01.487Z,1.00
2019-01-14T20:12:28.437Z,0.80
2019-01-14T20:14:57.363Z,0.80
2019-01-14T20:17:27.369Z,0.80
2019-01-14T20:19:54.059Z,0.60
2019-01-14T20:22:20.986Z,0.57
2019-01-14T20:24:47.618Z,0.53
2019-01-14T20:27:14.264Z,0.80
2019-01-14T20:29:40.847Z,0.70
2019-01-14T20:32:07.623Z,0.70
2019-01-14T20:34:34.256Z,0.60
2019-01-14T20:37:01.011Z,0.70
2019-01-14T20:39:27.735Z,0.80
2019-01-14T20:41:54.636Z,0.80
2019-01-14T20:44:21.270Z,0.60
2019-01-14T20:46:47.962Z,0.80
2019-01-14T20:49:14.869Z,0.90
2019-01-14T20:54:28.857Z,0.80
2019-01-14T20:56:55.563Z,1.12
2019-01-14T20:59:22.139Z,1.43
2019-01-14T21:01:50.193Z,2.17
2019-01-14T21:04:16.987Z,1.70
2019-01-14T21:06:43.874Z,1.10
2019-01-14T21:09:10.495Z,0.90
2019-01-14T21:11:39.900Z,0.90
2019-01-14T21:14:06.638Z,1.07
2019-01-14T21:16:33.173Z,0.90
2019-01-14T21:19:00.072Z,1.00
2019-01-14T21:21:37.407Z,0.90
2019-01-14T21:24:04.044Z,1.10
2019-01-14T21:26:30.663Z,1.07
2019-01-14T21:28:57.271Z,0.83
2019-01-14T21:31:34.683Z,1.17
2019-01-14T21:34:01.331Z,1.13
2019-01-14T21:36:28.160Z,0.80
2019-01-14T21:38:54.781Z,1.00
2019-01-14T21:41:31.020Z,0.80
2019-01-14T21:43:52.714Z,0.83
2019-01-14T21:46:19.334Z,0.90
2019-01-14T21:48:46.233Z,0.90
2019-01-14T21:51:12.816Z,0.60
2019-01-14T21:53:39.462Z,0.80
2019-01-14T21:56:06.362Z,0.97
2019-01-14T21:58:32.929Z,0.90
2019-01-14T22:00:59.513Z,0.80
2019-01-14T22:03:26.591Z,0.93
2019-01-14T22:05:54.659Z,0.80
2019-01-14T22:08:21.820Z,0.90
2019-01-14T22:10:48.454Z,1.10
2019-01-14T22:13:15.080Z,1.60
2019-01-14T22:15:41.705Z,1.87
2019-01-14T22:18:08.634Z,1.37
2019-01-14T22:20:35.543Z,1.60
2019-01-14T22:23:02.150Z,1.60
2019-01-14T22:25:28.859Z,1.70
2019-01-14T22:27:55.630Z,1.70
2019-01-14T22:30:22.211Z,1.47
2019-01-14T22:32:48.873Z,1.50
2019-01-14T22:35:15.720Z,1.30
2019-01-14T22:37:42.583Z,1.00
2019-01-14T22:40:09.146Z,1.30
2019-01-14T22:42:35.734Z,1.10
2019-01-14T22:45:02.393Z,1.13
2019-01-14T22:47:28.991Z,1.27
2019-01-14T22:49:55.798Z,0.95
2019-01-14T22:52:33.165Z,1.00
2019-01-14T22:54:59.839Z,1.10
2019-01-14T22:57:26.502Z,1.00
2019-01-14T22:59:53.105Z,1.03
2019-01-14T23:02:23.003Z,0.97
2019-01-14T23:04:49.909Z,1.20
2019-01-14T23:07:16.686Z,1.20
2019-01-14T23:09:43.319Z,0.83
2019-01-14T23:12:20.258Z,0.93
2019-01-14T23:14:47.012Z,1.33
2019-01-14T23:17:13.623Z,1.00
2019-01-14T23:19:40.243Z,0.90
2019-01-14T23:24:53.126Z,1.10
2019-01-14T23:27:19.754Z,1.07
2019-01-14T23:29:46.393Z,1.00
2019-01-14T23:32:14.262Z,1.00
2019-01-14T23:34:41.184Z,0.90
2019-01-14T23:37:07.892Z,1.30
2019-01-14T23:39:34.505Z,1.77
2019-01-14T23:42:01.232Z,1.50
2019-01-14T23:44:27.876Z,1.60
2019-01-14T23:46:54.516Z,1.97
2019-01-14T23:49:22.747Z,1.47
2019-01-14T23:51:49.325Z,1.80
2019-01-14T23:56:48.443Z,1.40
2019-01-14T23:59:15.393Z,1.50
